Time;durP1;ratioP1;P1;durP2;ratioP2;P2;SDS_P1;SDS_P2;PMS_P1;PMS_P2;Temp;Humidity;BMP_temperature;BMP_pressure;BME280_temperature;BME280_humidity;BME280_pressure;Samples;Min_cycle;Max_cycle;Signal;HPM_P1;HPM_P2
2021/03/28 00:01:54;;;;;;;;;;;;;;;0.64;100.00;100151.94;1821044;78;22077;-71
2021/03/28 00:04:24;;;;;;;;;;;;;;;0.58;100.00;100144.69;1821504;78;20153;-71
2021/03/28 00:06:55;;;;;;;;;;;;;;;0.60;100.00;100145.34;1821866;78;20188;-71
2021/03/28 00:09:26;;;;;;;;;;;;;;;0.63;100.00;100141.03;1821904;78;20650;-70
2021/03/28 00:12:07;;;;;;;;;;;;;;;0.62;100.00;100139.39;1821983;78;20137;-71
2021/03/28 00:14:51;;;;;;;;;;;;;;;0.61;100.00;100141.72;1822008;78;21365;-71
2021/03/28 00:17:32;;;;;;;;;;;;;;;0.40;100.00;100140.19;1821960;78;20186;-70
2021/03/28 00:20:08;;;;;;;;;;;;;;;0.33;100.00;100145.33;1821800;78;20207;-70
2021/03/28 00:22:44;;;;;;;;;;;;;;;0.17;100.00;100141.44;1821828;78;20230;-70
2021/03/28 00:25:22;;;;;;;;;;;;;;;0.15;100.00;100140.30;1821943;78;20163;-70
2021/03/28 00:27:52;;;;;;;;;;;;;;;0.14;100.00;100142.59;1801616;78;21351;-70
2021/03/28 00:30:36;;;;;;;;;;;;;;;0.07;100.00;100139.50;1821886;78;20668;-69
2021/03/28 00:33:14;;;;;;;;;;;;;;;0.03;100.00;100139.54;1821929;78;20250;-70
2021/03/28 00:36:00;;;;;;;;;;;;;;;-0.06;100.00;100133.45;1821647;78;20537;-71
2021/03/28 00:38:32;;;;;;;;;;;;;;;-0.08;100.00;100138.07;1821753;78;20127;-71
2021/03/28 00:41:07;;;;;;;;;;;;;;;-0.18;100.00;100144.05;1817513;78;22663;-71
2021/03/28 00:43:57;;;;;;;;;;;;;;;-0.26;100.00;100139.12;1821903;78;20740;-70
2021/03/28 00:46:48;;;;;;;;;;;;;;;-0.36;100.00;100137.67;1821858;78;20137;-70
2021/03/28 00:49:23;;;;;;;;;;;;;;;-0.37;100.00;100138.64;1825366;78;20857;-71
2021/03/28 00:51:57;;;;;;;;;;;;;;;-0.40;100.00;100130.57;1827703;78;20184;-71
2021/03/28 00:54:45;;;;;;;;;;;;;;;-0.46;100.00;100131.26;1827724;78;21348;-71
2021/03/28 00:57:31;;;;;;;;;;;;;;;-0.36;100.00;100131.89;1827677;78;20561;-70
2021/03/28 01:00:18;;;;;;;;;;;;;;;-0.19;100.00;100129.22;1827754;78;20153;-71
2021/03/28 01:03:08;;;;;;;;;;;;;;;-0.10;100.00;100132.14;1826943;78;20152;-70
2021/03/28 01:05:53;;;;;;;;;;;;;;;-0.12;100.00;100130.16;1827747;78;20109;-71
2021/03/28 01:08:35;;;;;;;;;;;;;;;-0.13;100.00;100129.84;1827646;78;21359;-72
2021/03/28 01:11:31;;;;;;;;;;;;;;;-0.11;100.00;100130.50;1827521;78;20125;-71
2021/03/28 01:14:20;;;;;;;;;;;;;;;-0.03;100.00;100123.86;1826917;78;20136;-71
2021/03/28 01:17:10;;;;;;;;;;;;;;;-0.02;100.00;100132.13;1827645;78;20129;-70
2021/03/28 01:20:00;;;;;;;;;;;;;;;-0.15;100.00;100126.55;1825347;78;20255;-71
2021/03/28 01:22:33;;;;;;;;;;;;;;;-0.18;100.00;100133.49;1827694;78;21810;-71
2021/03/28 01:25:22;;;;;;;;;;;;;;;-0.08;100.00;100126.20;1827505;78;20148;-71
2021/03/28 01:27:59;;;;;;;;;;;;;;;-0.03;100.00;100126.50;1827695;78;20140;-72
2021/03/28 01:30:42;;;;;;;;;;;;;;;-0.04;100.00;100123.55;1827693;78;20494;-71
2021/03/28 01:33:13;;;;;;;;;;;;;;;-0.02;100.00;100123.70;1827784;78;20231;-71
2021/03/28 01:35:55;;;;;;;;;;;;;;;-0.06;100.00;100121.07;1827665;78;20144;-71
2021/03/28 01:38:29;;;;;;;;;;;;;;;-0.09;100.00;100125.37;1827532;78;20207;-71
2021/03/28 01:41:07;;;;;;;;;;;;;;;-0.15;100.00;100123.41;1827120;78;20215;-71
2021/03/28 01:43:42;;;;;;;;;;;;;;;-0.10;100.00;100121.58;1827497;78;20502;-71
2021/03/28 01:46:25;;;;;;;;;;;;;;;-0.11;100.00;100120.77;1827671;78;20148;-71
2021/03/28 01:48:55;;;;;;;;;;;;;;;-0.12;100.00;100124.41;1824605;78;21374;-71
2021/03/28 01:51:48;;;;;;;;;;;;;;;-0.18;100.00;100123.75;1821653;78;20193;-71
2021/03/28 01:54:42;;;;;;;;;;;;;;;-0.16;100.00;100136.28;1789453;80;20157;-71
2021/03/28 01:57:29;;;;;;;;;;;;;;;0.04;100.00;100127.97;1789483;80;20133;-71
2021/03/28 02:00:22;;;;;;;;;;;;;;;0.11;100.00;100125.80;1740364;82;20221;-70
2021/03/28 02:03:14;;;;;;;;;;;;;;;0.07;100.00;100120.52;1740337;82;21570;-70
2021/03/28 02:05:57;;;;;;;;;;;;;;;0.03;100.00;100127.16;1740466;82;20186;-70
2021/03/28 02:08:57;;;;;;;;;;;;;;;0.07;100.00;100122.34;1855018;77;20236;-69
2021/03/28 02:11:56;;;;;;;;;;;;;;;-0.05;100.00;100119.25;1822611;78;20140;-70
2021/03/28 02:14:36;;;;;;;;;;;;;;;-0.10;100.00;100121.58;1822696;78;21472;-70
2021/03/28 02:17:19;;;;;;;;;;;;;;;-0.09;100.00;100117.97;1822433;78;20479;-70
2021/03/28 02:20:00;;;;;;;;;;;;;;;-0.04;100.00;100119.09;1822580;78;20494;-70
2021/03/28 02:22:45;;;;;;;;;;;;;;;-0.03;100.00;100114.63;1791457;78;20975;-70
2021/03/28 02:25:27;;;;;;;;;;;;;;;-0.03;100.00;100108.03;1800163;78;20478;-71
2021/03/28 02:28:01;;;;;;;;;;;;;;;0.03;100.00;100113.95;1822559;78;21361;-71
2021/03/28 02:30:40;;;;;;;;;;;;;;;0.11;100.00;100115.23;1822520;78;20718;-71
2021/03/28 02:33:33;;;;;;;;;;;;;;;0.16;100.00;100106.80;1822482;78;20141;-72
2021/03/28 02:36:24;;;;;;;;;;;;;;;0.16;100.00;100098.88;1822587;78;20132;-72
2021/03/28 02:39:07;;;;;;;;;;;;;;;0.13;100.00;100100.05;1822546;78;20231;-71
2021/03/28 02:42:04;;;;;;;;;;;;;;;-0.05;100.00;100097.66;1822613;78;21186;-70
2021/03/28 02:44:56;;;;;;;;;;;;;;;-0.26;100.00;100094.77;1822590;78;20109;-71
2021/03/28 02:47:52;;;;;;;;;;;;;;;-0.50;100.00;100097.79;1822464;78;20152;-70
2021/03/28 02:50:40;;;;;;;;;;;;;;;-0.69;100.00;100089.75;1803150;78;20153;-71
2021/03/28 02:53:27;;;;;;;;;;;;;;;-0.87;100.00;100088.63;1822570;78;20121;-72
2021/03/28 02:56:15;;;;;;;;;;;;;;;;;;;;;
2021/03/28 02:59:05;;;;;;;;;;;;;;;-1.26;100.00;100090.28;1822526;78;20117;-70
2021/03/28 03:01:49;;;;;;;;;;;;;;;-1.31;100.00;100089.45;1771162;81;20218;-70
2021/03/28 03:04:40;;;;;;;;;;;;;;;-1.17;100.00;100092.77;1770957;81;20274;-71
2021/03/28 03:07:20;;;;;;;;;;;;;;;-0.93;100.00;100091.09;1771368;81;20251;-71
2021/03/28 03:10:27;;;;;;;;;;;;;;;-0.88;100.00;100088.81;1771617;81;21150;-70
2021/03/28 03:13:19;;;;;;;;;;;;;;;-0.77;100.00;100095.54;1771532;81;20298;-71
2021/03/28 03:16:02;;;;;;;;;;;;;;;-0.48;100.00;100101.09;1853543;77;20291;-70
2021/03/28 03:18:50;;;;;;;;;;;;;;;-0.41;100.00;100101.24;1822662;78;20177;-70
2021/03/28 03:21:41;;;;;;;;;;;;;;;-0.33;100.00;100102.53;1822533;78;21452;-70
2021/03/28 03:24:29;;;;;;;;;;;;;;;-0.15;100.00;100104.12;1822495;78;20176;-70
2021/03/28 03:27:20;;;;;;;;;;;;;;;-0.02;100.00;100099.95;1822543;78;20522;-70
2021/03/28 03:30:11;;;;;;;;;;;;;;;0.04;100.00;100101.08;1822674;78;20227;-71
2021/03/28 03:32:49;;;;;;;;;;;;;;;0.05;100.00;100098.78;1822572;78;20519;-71
2021/03/28 03:35:36;;;;;;;;;;;;;;;0.12;100.00;100099.73;1822567;78;21799;-71
2021/03/28 03:38:10;;;;;;;;;;;;;;;0.25;100.00;100099.67;1822019;78;20136;-70
2021/03/28 03:41:10;;;;;;;;;;;;;;;0.35;100.00;100103.73;1822595;78;20307;-71
2021/03/28 03:43:48;;;;;;;;;;;;;;;0.47;100.00;100106.81;1822442;78;20219;-70
2021/03/28 03:46:42;;;;;;;;;;;;;;;0.54;100.00;100111.72;1822709;78;20121;-71
2021/03/28 03:49:27;;;;;;;;;;;;;;;0.64;100.00;100108.84;1822383;78;20156;-71
2021/03/28 03:52:19;;;;;;;;;;;;;;;0.71;100.00;100104.98;1822555;78;20144;-71
2021/03/28 03:55:03;;;;;;;;;;;;;;;0.69;100.00;100110.97;1822569;78;20502;-71
2021/03/28 03:57:46;;;;;;;;;;;;;;;0.65;100.00;100113.12;1822630;78;20899;-70
2021/03/28 04:00:38;;;;;;;;;;;;;;;0.65;100.00;100110.48;1822629;78;20168;-70
2021/03/28 04:03:24;;;;;;;;;;;;;;;0.74;100.00;100113.91;1786253;80;21375;-70
2021/03/28 04:06:19;;;;;;;;;;;;;;;0.83;100.00;100111.50;1786270;80;20226;-69
2021/03/28 04:09:08;;;;;;;;;;;;;;;0.92;100.00;100114.92;1786430;80;20136;-70
2021/03/28 04:12:02;;;;;;;;;;;;;;;0.93;100.00;100115.23;1786369;80;20724;-70
2021/03/28 04:14:56;;;;;;;;;;;;;;;0.96;100.00;100109.11;1786472;80;20524;-70
2021/03/28 04:18:04;;;;;;;;;;;;;;;0.96;100.00;100111.75;1783222;80;20219;-70
2021/03/28 04:20:53;;;;;;;;;;;;;;;0.97;100.00;100112.05;1786311;80;20159;-70
2021/03/28 04:23:41;;;;;;;;;;;;;;;1.01;100.00;100116.51;1786307;79;20175;-70
2021/03/28 04:26:21;;;;;;;;;;;;;;;1.07;100.00;100121.06;1760005;80;20266;-71
2021/03/28 04:29:12;;;;;;;;;;;;;;;1.05;100.00;100116.45;1892682;75;20181;-69
2021/03/28 04:32:00;;;;;;;;;;;;;;;0.94;100.00;100123.50;1831000;77;20212;-69
2021/03/28 04:34:33;;;;;;;;;;;;;;;0.89;100.00;100117.92;1863569;77;21387;-69
2021/03/28 04:37:26;;;;;;;;;;;;;;;0.86;100.00;100125.70;1863617;77;20153;-69
2021/03/28 04:40:21;;;;;;;;;;;;;;;0.87;100.00;100123.38;1779821;80;20127;-69
2021/03/28 04:42:52;;;;;;;;;;;;;;;0.88;100.00;100117.08;1779847;80;20151;-69
2021/03/28 04:45:55;;;;;;;;;;;;;;;0.96;100.00;100118.86;1779601;80;20211;-69
2021/03/28 04:48:46;;;;;;;;;;;;;;;1.05;100.00;100118.63;1779247;80;22464;-69
2021/03/28 04:51:50;;;;;;;;;;;;;;;1.20;100.00;100120.45;1779622;80;20152;-70
2021/03/28 04:54:43;;;;;;;;;;;;;;;1.46;100.00;100121.38;1779464;80;20148;-70
2021/03/28 04:57:24;;;;;;;;;;;;;;;1.75;100.00;100125.88;1778705;80;20510;-70
2021/03/28 05:00:19;;;;;;;;;;;;;;;2.02;100.00;100126.25;1778526;80;20293;-71
2021/03/28 05:03:01;;;;;;;;;;;;;;;2.22;100.00;100125.17;1779060;80;22576;-70
2021/03/28 05:05:41;;;;;;;;;;;;;;;2.38;100.00;100124.12;1778732;80;20155;-70
2021/03/28 05:08:35;;;;;;;;;;;;;;;2.61;100.00;100126.13;1892836;76;20687;-70
2021/03/28 05:11:23;;;;;;;;;;;;;;;2.74;100.00;100116.16;1863545;77;20130;-71
2021/03/28 05:14:14;;;;;;;;;;;;;;;2.93;100.00;100115.53;1863515;77;20158;-70
2021/03/28 05:17:06;;;;;;;;;;;;;;;3.09;100.00;100116.30;1863639;77;20126;-70
2021/03/28 05:19:45;;;;;;;;;;;;;;;3.30;100.00;100114.11;1862768;77;20126;-70
2021/03/28 05:22:50;;;;;;;;;;;;;;;3.58;100.00;100113.61;1862849;77;20130;-71
2021/03/28 05:25:44;;;;;;;;;;;;;;;3.79;100.00;100118.52;1780090;79;20136;-71
2021/03/28 05:28:41;;;;;;;;;;;;;;;4.00;100.00;100107.00;1779691;80;21377;-69
2021/03/28 05:31:15;;;;;;;;;;;;;;;4.15;100.00;100106.86;1779748;80;20151;-70
2021/03/28 05:34:14;;;;;;;;;;;;;;;4.30;100.00;100124.28;1779807;80;20131;-70
2021/03/28 05:36:47;;;;;;;;;;;;;;;4.41;100.00;100116.27;1779809;78;20197;-70
2021/03/28 05:39:47;;;;;;;;;;;;;;;4.62;100.00;100121.93;1779518;79;20600;-70
2021/03/28 05:42:47;;;;;;;;;;;;;;;4.68;100.00;100117.16;1779487;80;21189;-70
2021/03/28 05:45:25;;;;;;;;;;;;;;;4.83;100.00;100116.16;1779087;80;20303;-70
2021/03/28 05:48:20;;;;;;;;;;;;;;;5.01;100.00;100116.89;1779507;80;20250;-71
2021/03/28 05:51:11;;;;;;;;;;;;;;;5.19;100.00;100118.42;1779626;80;20301;-70
2021/03/28 05:53:58;;;;;;;;;;;;;;;5.36;100.00;100117.50;1779392;80;20331;-71
2021/03/28 05:56:29;;;;;;;;;;;;;;;5.47;99.05;100122.22;1779420;80;21328;-70
2021/03/28 05:59:21;;;;;;;;;;;;;;;5.58;100.00;100124.27;1854568;77;20353;-70
2021/03/28 06:02:10;;;;;;;;;;;;;;;5.68;99.49;100122.48;1822328;78;20160;-71
2021/03/28 06:05:00;;;;;;;;;;;;;;;5.81;97.61;100122.98;1822162;78;21261;-71
2021/03/28 06:08:00;;;;;;;;;;;;;;;5.98;97.30;100126.05;1821800;78;20219;-71
2021/03/28 06:10:33;;;;;;;;;;;;;;;6.20;95.20;100125.27;1822315;78;20499;-71
2021/03/28 06:13:21;;;;;;;;;;;;;;;6.37;94.36;100131.75;1822292;78;20141;-72
2021/03/28 06:16:15;;;;;;;;;;;;;;;6.56;94.38;100130.00;1822094;78;20164;-72
2021/03/28 06:19:06;;;;;;;;;;;;;;;6.76;90.96;100127.73;1816956;78;21366;-70
2021/03/28 06:21:47;;;;;;;;;;;;;;;6.87;91.24;100128.40;1854504;77;20136;-70
2021/03/28 06:24:44;;;;;;;;;;;;;;;7.13;89.37;100128.74;1854327;77;20142;-70
2021/03/28 06:27:36;;;;;;;;;;;;;;;7.37;87.49;100117.74;1854499;77;20115;-71
2021/03/28 06:30:25;;;;;;;;;;;;;;;7.53;86.48;100124.92;1854339;77;20207;-71
2021/03/28 06:33:24;;;;;;;;;;;;;;;7.67;84.17;100117.89;1854614;77;21184;-71
2021/03/28 06:36:23;;;;;;;;;;;;;;;7.78;84.82;100122.20;1854462;77;20146;-70
2021/03/28 06:39:25;;;;;;;;;;;;;;;7.84;83.49;100125.31;1853853;77;20477;-70
2021/03/28 06:42:13;;;;;;;;;;;;;;;7.97;83.48;100126.52;1854594;77;20615;-71
2021/03/28 06:45:07;;;;;;;;;;;;;;;8.08;82.13;100123.09;1854215;77;20147;-71
2021/03/28 06:47:39;;;;;;;;;;;;;;;8.10;81.62;100108.98;1854547;77;22663;-70
2021/03/28 06:50:38;;;;;;;;;;;;;;;8.15;81.41;100121.16;1853988;77;20501;-70
2021/03/28 06:53:28;;;;;;;;;;;;;;;8.31;80.75;100117.08;1713876;83;20526;-71
2021/03/28 06:56:23;;;;;;;;;;;;;;;8.46;81.34;100115.91;1681603;84;20250;-70
2021/03/28 06:59:13;;;;;;;;;;;;;;;8.83;79.31;100121.16;1624958;88;20306;-67
2021/03/28 07:01:52;;;;;;;;;;;;;;;9.03;78.71;100113.63;1603813;89;22244;-71
2021/03/28 07:04:38;;;;;;;;;;;;;;;9.17;76.44;100119.08;1637031;87;20158;-71
2021/03/28 07:07:38;;;;;;;;;;;;;;;9.19;76.96;100113.50;1637119;87;20316;-71
2021/03/28 07:10:23;;;;;;;;;;;;;;;9.40;76.25;100116.94;1635865;87;20317;-71
2021/03/28 07:13:20;;;;;;;;;;;;;;;9.55;75.07;100123.17;1619463;88;20326;-70
2021/03/28 07:16:07;;;;;;;;;;;;;;;9.58;75.42;100118.71;1619450;88;21345;-70
2021/03/28 07:18:50;;;;;;;;;;;;;;;9.74;73.72;100120.39;1674898;85;20346;-72
2021/03/28 07:21:37;;;;;;;;;;;;;;;9.98;71.39;100117.97;1676834;85;20289;-70
2021/03/28 07:24:29;;;;;;;;;;;;;;;9.94;69.76;100114.12;1676419;85;20247;-70
2021/03/28 07:27:21;;;;;;;;;;;;;;;9.96;70.09;100115.23;1668074;85;20289;-70
2021/03/28 07:30:18;;;;;;;;;;;;;;;10.32;70.44;100113.33;1852153;77;20182;-71
2021/03/28 07:33:06;;;;;;;;;;;;;;;10.19;68.21;100117.88;1821595;78;20145;-71
2021/03/28 07:35:54;;;;;;;;;;;;;;;9.98;69.36;100111.80;1822145;78;21360;-70
2021/03/28 07:38:59;;;;;;;;;;;;;;;9.99;70.08;100116.09;1821528;78;20133;-71
2021/03/28 07:41:46;;;;;;;;;;;;;;;10.21;70.22;100115.75;1788032;80;20206;-70
2021/03/28 07:44:43;;;;;;;;;;;;;;;10.27;68.53;100112.13;1789853;80;20155;-70
2021/03/28 07:47:40;;;;;;;;;;;;;;;10.35;69.00;100114.19;1720903;83;20238;-71
2021/03/28 07:50:34;;;;;;;;;;;;;;;10.50;68.95;100112.59;1721387;83;21400;-70
2021/03/28 07:53:28;;;;;;;;;;;;;;;10.69;68.75;100113.23;1721526;82;20195;-70
2021/03/28 07:56:34;;;;;;;;;;;;;;;10.70;68.73;100109.47;1721931;83;20164;-69
2021/03/28 07:59:34;;;;;;;;;;;;;;;10.96;69.32;100117.19;1720857;83;20246;-71
2021/03/28 08:02:47;;;;;;;;;;;;;;;10.81;65.09;100102.97;1854282;77;20233;-69
2021/03/28 08:05:48;;;;;;;;;;;;;;;10.81;67.00;100109.68;1821039;78;20125;-70
2021/03/28 08:08:37;;;;;;;;;;;;;;;10.67;66.44;100109.16;1821463;78;21197;-71
2021/03/28 08:11:22;;;;;;;;;;;;;;;11.02;66.32;100106.80;1821041;78;20472;-70
2021/03/28 08:14:12;;;;;;;;;;;;;;;11.25;66.00;100100.48;1820585;78;20578;-70
2021/03/28 08:17:09;;;;;;;;;;;;;;;11.34;63.39;100106.54;1715146;83;20749;-71
2021/03/28 08:20:06;;;;;;;;;;;;;;;11.50;61.91;100101.39;1714703;83;20251;-71
2021/03/28 08:25:56;;;;;;;;;;;;;;;11.45;61.94;100099.44;1621976;86;20753;-70
2021/03/28 08:28:51;;;;;;;;;;;;;;;11.35;60.79;100100.09;1592639;87;20138;-69
2021/03/28 08:31:34;;;;;;;;;;;;;;;11.49;62.11;100100.58;1597629;89;20686;-70
2021/03/28 08:34:43;;;;;;;;;;;;;;;11.75;60.89;100086.95;1612697;88;20258;-70
2021/03/28 08:37:40;;;;;;;;;;;;;;;11.73;60.67;100099.83;1601833;88;21980;-70
2021/03/28 08:40:17;;;;;;;;;;;;;;;11.98;60.38;100091.87;1602020;86;20360;-70
2021/03/28 08:43:31;;;;;;;;;;;;;;;12.46;59.76;100087.57;1823817;78;20195;-70
2021/03/28 08:46:29;;;;;;;;;;;;;;;12.56;58.44;100086.86;1798697;79;20527;-70
2021/03/28 08:49:34;;;;;;;;;;;;;;;12.74;57.19;100080.30;1798442;79;21588;-73
2021/03/28 08:52:35;;;;;;;;;;;;;;;12.37;57.10;100075.11;1798649;78;20599;-71
2021/03/28 08:55:42;;;;;;;;;;;;;;;12.25;58.71;100087.89;1794254;79;20174;-71
2021/03/28 08:58:21;;;;;;;;;;;;;;;12.10;58.69;100080.45;1798734;79;20167;-71
2021/03/28 09:01:16;;;;;;;;;;;;;;;12.23;58.07;100084.63;1798642;79;20174;-71
2021/03/28 09:03:56;;;;;;;;;;;;;;;12.50;57.51;100083.31;1767949;79;21367;-72
2021/03/28 09:06:46;;;;;;;;;;;;;;;13.07;56.35;100077.91;1797601;79;20151;-71
2021/03/28 09:09:52;;;;;;;;;;;;;;;13.40;54.54;100085.45;1795111;79;20167;-71
2021/03/28 09:12:34;;;;;;;;;;;;;;;13.15;53.36;100076.08;1764274;80;20283;-72
2021/03/28 09:15:36;;;;;;;;;;;;;;;13.19;54.69;100081.23;1804579;79;20488;-71
2021/03/28 09:18:22;;;;;;;;;;;;;;;13.61;54.13;100076.97;1760636;81;21129;-71
2021/03/28 09:20:55;;;;;;;;;;;;;;;13.98;52.06;100080.12;1756257;81;20240;-71
2021/03/28 09:23:40;;;;;;;;;;;;;;;14.19;51.76;100084.53;1735371;82;20246;-71
2021/03/28 09:26:17;;;;;;;;;;;;;;;14.11;51.66;100083.16;1704498;84;20336;-71
2021/03/28 09:29:05;;;;;;;;;;;;;;;14.04;51.10;100073.69;1758419;81;20264;-69
2021/03/28 09:31:54;;;;;;;;;;;;;;;13.98;51.55;100075.53;1735232;82;23595;-71
2021/03/28 09:34:54;;;;;;;;;;;;;;;13.97;52.19;100065.82;1854223;77;20244;-70
2021/03/28 09:37:38;;;;;;;;;;;;;;;13.89;53.32;100075.23;1821628;78;20203;-70
2021/03/28 09:40:09;;;;;;;;;;;;;;;13.60;52.43;100064.56;1822295;78;22337;-70
2021/03/28 09:42:53;;;;;;;;;;;;;;;13.61;53.92;100079.12;1821933;78;20195;-71
2021/03/28 09:45:41;;;;;;;;;;;;;;;13.49;53.13;100064.48;1822219;78;20152;-71
2021/03/28 09:48:34;;;;;;;;;;;;;;;13.86;53.35;100070.89;1822359;78;20152;-71
2021/03/28 09:51:23;;;;;;;;;;;;;;;13.85;53.11;100067.38;1819848;78;20506;-71
2021/03/28 09:54:16;;;;;;;;;;;;;;;14.23;51.99;100062.66;1797614;78;21199;-71
2021/03/28 09:57:05;;;;;;;;;;;;;;;14.43;51.64;100070.03;1795939;78;20131;-71
2021/03/28 09:59:44;;;;;;;;;;;;;;;14.47;49.75;100058.94;1807436;78;20507;-75
2021/03/28 10:02:22;;;;;;;;;;;;;;;14.30;51.87;100064.57;1802290;78;20267;-74
2021/03/28 10:05:02;;;;;;;;;;;;;;;14.40;51.07;100056.23;1798435;78;20263;-71
2021/03/28 10:07:51;;;;;;;;;;;;;;;14.41;51.60;100061.92;1823172;78;21201;-71
2021/03/28 10:10:37;;;;;;;;;;;;;;;14.48;50.95;100048.97;1820856;78;20144;-71
2021/03/28 10:13:13;;;;;;;;;;;;;;;14.89;49.53;100057.94;1821626;78;20496;-71
2021/03/28 10:15:57;;;;;;;;;;;;;;;14.67;50.76;100051.98;1821394;78;20287;-69
2021/03/28 10:18:53;;;;;;;;;;;;;;;14.72;49.60;100056.88;1822192;78;20176;-70
2021/03/28 10:21:48;;;;;;;;;;;;;;;14.61;50.44;100052.53;1821256;78;21335;-70
2021/03/28 10:24:41;;;;;;;;;;;;;;;14.34;51.34;100044.06;1821849;78;20140;-69
2021/03/28 10:27:31;;;;;;;;;;;;;;;14.11;52.15;100048.58;1822260;78;20133;-69
2021/03/28 10:30:23;;;;;;;;;;;;;;;14.52;53.47;100046.80;1821843;78;20279;-71
2021/03/28 10:33:06;;;;;;;;;;;;;;;14.96;48.33;100054.97;1821654;78;20212;-70
2021/03/28 10:36:02;;;;;;;;;;;;;;;14.68;53.81;100041.47;1822130;78;21349;-70
2021/03/28 10:38:50;;;;;;;;;;;;;;;14.36;55.92;100036.52;1822007;78;20152;-71
2021/03/28 10:41:31;;;;;;;;;;;;;;;14.04;56.91;100038.59;1821227;78;20523;-70
2021/03/28 10:44:24;;;;;;;;;;;;;;;14.03;56.97;100032.36;1821802;78;20141;-71
2021/03/28 10:47:14;;;;;;;;;;;;;;;14.13;56.44;100044.56;1820882;78;20283;-71
2021/03/28 10:50:11;;;;;;;;;;;;;;;14.47;56.59;100037.88;1821596;78;20997;-71
2021/03/28 10:53:03;;;;;;;;;;;;;;;14.29;56.14;100040.55;1821021;78;20137;-70
2021/03/28 10:55:59;;;;;;;;;;;;;;;14.09;56.56;100041.31;1821104;78;20168;-71
2021/03/28 10:58:40;;;;;;;;;;;;;;;14.06;57.98;100039.95;1821194;78;20597;-69
2021/03/28 11:01:46;;;;;;;;;;;;;;;14.03;57.96;100036.41;1819449;78;20228;-69
2021/03/28 11:04:40;;;;;;;;;;;;;;;13.67;58.81;100028.19;1821245;78;21212;-70
2021/03/28 11:07:32;;;;;;;;;;;;;;;13.55;59.24;100026.75;1821093;78;20530;-70
2021/03/28 11:10:23;;;;;;;;;;;;;;;13.65;58.88;100034.92;1821331;78;20510;-69
2021/03/28 11:13:32;;;;;;;;;;;;;;;13.40;58.73;100031.52;1821409;78;20626;-71
2021/03/28 11:16:12;;;;;;;;;;;;;;;13.72;60.22;100030.10;1821207;78;20208;-69
2021/03/28 11:19:20;;;;;;;;;;;;;;;14.14;57.37;100025.12;1821540;78;22137;-70
2021/03/28 11:21:51;;;;;;;;;;;;;;;14.23;56.24;100024.86;1820992;78;20226;-71
2021/03/28 11:24:32;;;;;;;;;;;;;;;14.51;55.89;100026.83;1816767;78;20216;-70
2021/03/28 11:27:23;;;;;;;;;;;;;;;14.64;55.56;100020.11;1820842;78;20216;-71
2021/03/28 11:30:04;;;;;;;;;;;;;;;14.80;56.20;100029.85;1821437;78;20232;-71
2021/03/28 11:33:11;;;;;;;;;;;;;;;14.83;55.09;100027.16;1820793;78;21142;-70
2021/03/28 11:35:45;;;;;;;;;;;;;;;14.98;55.92;100026.59;1821329;78;20168;-70
2021/03/28 11:38:20;;;;;;;;;;;;;;;14.66;55.69;100027.41;1803097;78;20251;-70
2021/03/28 11:40:54;;;;;;;;;;;;;;;14.50;57.73;100021.13;1821294;78;20207;-70
2021/03/28 11:43:31;;;;;;;;;;;;;;;14.56;58.56;100022.80;1821136;78;20248;-71
2021/03/28 11:46:24;;;;;;;;;;;;;;;14.77;55.20;100025.80;1749137;81;22275;-69
2021/03/28 11:48:55;;;;;;;;;;;;;;;14.67;57.36;100023.62;1750211;82;20256;-69
2021/03/28 11:51:25;;;;;;;;;;;;;;;14.47;58.16;100015.73;1750019;82;20613;-69
2021/03/28 11:54:12;;;;;;;;;;;;;;;14.42;59.36;100018.97;1749929;82;20244;-69
2021/03/28 11:56:51;;;;;;;;;;;;;;;14.38;59.84;100011.95;1750281;80;20544;-70
2021/03/28 11:59:35;;;;;;;;;;;;;;;14.64;58.51;100015.51;1749476;82;22382;-70
2021/03/28 12:02:12;;;;;;;;;;;;;;;14.65;57.71;100013.09;1750121;82;20727;-69
2021/03/28 12:04:44;;;;;;;;;;;;;;;14.77;56.94;100011.45;1749874;82;20307;-69
2021/03/28 12:07:44;;;;;;;;;;;;;;;14.29;58.88;100007.61;1853862;77;20257;-69
2021/03/28 12:10:18;;;;;;;;;;;;;;;14.19;59.39;100010.84;1821885;78;20156;-68
2021/03/28 12:12:52;;;;;;;;;;;;;;;14.54;60.49;100012.80;1821419;78;22114;-70
2021/03/28 12:15:44;;;;;;;;;;;;;;;14.24;60.87;100009.49;1822037;78;21134;-69
2021/03/28 12:18:29;;;;;;;;;;;;;;;14.19;60.46;100010.84;1821916;78;20148;-69
2021/03/28 12:21:05;;;;;;;;;;;;;;;13.62;62.15;100003.89;1821969;78;20503;-69
2021/03/28 12:23:58;;;;;;;;;;;;;;;13.49;64.60;99997.06;1822072;78;20502;-71
2021/03/28 12:26:33;;;;;;;;;;;;;;;13.78;62.67;100002.05;1821667;78;21197;-70
2021/03/28 12:29:08;;;;;;;;;;;;;;;14.13;60.37;99995.98;1816379;78;20196;-72
2021/03/28 12:31:47;;;;;;;;;;;;;;;14.25;58.62;99997.06;1818605;78;20216;-71
2021/03/28 12:34:30;;;;;;;;;;;;;;;13.96;58.93;99993.21;1820130;78;20311;-70
2021/03/28 12:37:03;;;;;;;;;;;;;;;13.99;59.14;99998.06;1820846;78;20275;-68
2021/03/28 12:39:41;;;;;;;;;;;;;;;13.83;59.98;99989.93;1821585;78;21414;-70
2021/03/28 12:42:31;;;;;;;;;;;;;;;13.80;59.85;99986.42;1821628;78;20137;-70
2021/03/28 12:45:12;;;;;;;;;;;;;;;13.53;61.66;99982.53;1821155;78;20160;-70
2021/03/28 12:47:49;;;;;;;;;;;;;;;13.36;63.02;99979.21;1821959;78;20255;-70
2021/03/28 12:50:42;;;;;;;;;;;;;;;13.31;63.06;99977.84;1821718;78;20161;-69
2021/03/28 12:53:22;;;;;;;;;;;;;;;13.35;62.29;99976.23;1821802;78;22248;-70
2021/03/28 12:55:51;;;;;;;;;;;;;;;13.04;63.80;99977.38;1821805;78;20125;-70
2021/03/28 12:58:24;;;;;;;;;;;;;;;12.92;64.73;99976.22;1805946;78;20142;-69
2021/03/28 13:00:56;;;;;;;;;;;;;;;12.92;65.84;99966.78;1789670;79;20893;-70
2021/03/28 13:03:33;;;;;;;;;;;;;;;12.91;66.48;99965.17;1797939;78;20279;-70
2021/03/28 13:06:24;;;;;;;;;;;;;;;13.00;66.48;99969.52;1801538;78;21432;-70
2021/03/28 13:09:09;;;;;;;;;;;;;;;13.17;65.58;99963.97;1804622;78;20154;-71
2021/03/28 13:11:52;;;;;;;;;;;;;;;13.12;65.98;99957.20;1796103;79;20276;-69
2021/03/28 13:14:38;;;;;;;;;;;;;;;13.01;66.32;99957.16;1813139;78;20217;-71
2021/03/28 13:17:29;;;;;;;;;;;;;;;12.77;65.74;99955.91;1798493;78;20294;-71
2021/03/28 13:20:21;;;;;;;;;;;;;;;12.91;65.93;99960.30;1797493;79;21199;-71
2021/03/28 13:22:51;;;;;;;;;;;;;;;12.93;66.05;99953.58;1797169;78;20283;-69
2021/03/28 13:25:28;;;;;;;;;;;;;;;12.99;64.66;99952.55;1792090;78;20272;-70
2021/03/28 13:28:06;;;;;;;;;;;;;;;12.92;65.22;99952.51;1809632;78;20371;-70
2021/03/28 13:30:38;;;;;;;;;;;;;;;12.83;67.34;99948.92;1803457;78;20279;-72
2021/03/28 13:33:37;;;;;;;;;;;;;;;12.77;67.86;99955.37;1798166;78;21369;-69
2021/03/28 13:36:17;;;;;;;;;;;;;;;12.76;68.85;99951.57;1801485;78;20307;-70
2021/03/28 13:39:02;;;;;;;;;;;;;;;12.63;67.86;99940.17;1806045;78;20188;-69
2021/03/28 13:41:43;;;;;;;;;;;;;;;12.68;69.55;99939.40;1799291;78;20305;-69
2021/03/28 13:44:18;;;;;;;;;;;;;;;12.72;71.15;99937.02;1804405;78;20228;-70
2021/03/28 13:46:51;;;;;;;;;;;;;;;12.62;72.23;99939.09;1802746;78;21185;-71
2021/03/28 13:49:29;;;;;;;;;;;;;;;12.65;72.71;99945.31;1800293;78;20224;-70
2021/03/28 13:52:14;;;;;;;;;;;;;;;12.58;72.89;99937.44;1815583;78;20299;-70
2021/03/28 13:54:47;;;;;;;;;;;;;;;12.47;75.83;99940.30;1824415;78;20497;-70
2021/03/28 13:57:23;;;;;;;;;;;;;;;12.31;80.19;99937.48;1826957;78;20156;-70
2021/03/28 14:00:06;;;;;;;;;;;;;;;12.20;79.11;99933.91;1826762;78;21196;-69
2021/03/28 14:02:40;;;;;;;;;;;;;;;12.10;81.12;99932.47;1802886;78;21046;-70
2021/03/28 14:05:10;;;;;;;;;;;;;;;11.97;82.86;99936.34;1788922;78;20199;-69
2021/03/28 14:07:44;;;;;;;;;;;;;;;11.95;84.61;99929.06;1779835;78;20152;-70
2021/03/28 14:10:34;;;;;;;;;;;;;;;11.89;85.67;99929.28;1804630;78;20310;-71
2021/03/28 14:13:23;;;;;;;;;;;;;;;11.86;85.81;99928.42;1821502;78;21106;-70
2021/03/28 14:16:05;;;;;;;;;;;;;;;11.89;85.09;99934.13;1829708;78;20164;-70
2021/03/28 14:18:53;;;;;;;;;;;;;;;11.91;84.09;99928.50;1829740;78;20152;-69
2021/03/28 14:21:32;;;;;;;;;;;;;;;11.96;83.19;99928.02;1829897;78;20187;-70